createdAt,value
2018-09-25T00:00:06.761Z,70.20
2018-09-25T00:00:46.044Z,70.20
2018-09-25T00:01:24.958Z,70.10
2018-09-25T00:02:03.837Z,70.20
2018-09-25T00:02:42.753Z,70.20
2018-09-25T00:03:21.684Z,70.10
2018-09-25T00:04:00.890Z,70.10
2018-09-25T00:04:39.935Z,70.10
2018-09-25T00:05:18.979Z,70.20
2018-09-25T00:05:58.231Z,70.30
2018-09-25T00:06:37.182Z,71.20
2018-09-25T00:07:16.439Z,70.40
2018-09-25T00:07:55.420Z,70.30
2018-09-25T00:08:34.592Z,70.40
2018-09-25T00:09:15.270Z,70.40
2018-09-25T00:09:54.394Z,70.40
2018-09-25T00:10:33.463Z,70.50
2018-09-25T00:11:12.773Z,70.30
2018-09-25T00:11:51.869Z,70.40
2018-09-25T00:12:31.019Z,70.30
2018-09-25T00:13:10.040Z,70.30
2018-09-25T00:13:49.220Z,71.40
2018-09-25T00:14:28.223Z,70.80
2018-09-25T00:15:07.275Z,70.60
2018-09-25T00:15:46.427Z,70.60
2018-09-25T00:16:25.517Z,70.70
2018-09-25T00:17:04.532Z,70.60
2018-09-25T00:17:43.487Z,70.70
2018-09-25T00:18:22.617Z,70.80
2018-09-25T00:19:01.547Z,70.80
2018-09-25T00:19:40.589Z,70.80
2018-09-25T00:20:19.443Z,70.80
2018-09-25T00:20:58.334Z,70.70
2018-09-25T00:21:37.461Z,70.80
2018-09-25T00:22:16.501Z,71.00
2018-09-25T00:22:55.720Z,71.00
2018-09-25T00:23:34.644Z,70.90
2018-09-25T00:24:13.661Z,70.90
2018-09-25T00:24:53.089Z,70.90
2018-09-25T00:25:32.081Z,70.90
2018-09-25T00:26:11.056Z,70.90
2018-09-25T00:26:50.060Z,71.10
2018-09-25T00:27:29.130Z,71.30
2018-09-25T00:28:08.184Z,71.20
2018-09-25T00:28:47.218Z,71.10
2018-09-25T00:29:26.384Z,71.10
2018-09-25T00:30:05.454Z,71.70
2018-09-25T00:30:44.420Z,71.00
2018-09-25T00:31:23.409Z,70.90
2018-09-25T00:32:02.538Z,70.90
2018-09-25T00:32:41.400Z,70.90
2018-09-25T00:33:20.559Z,70.90
2018-09-25T00:33:59.838Z,70.90
2018-09-25T00:34:38.866Z,71.10
2018-09-25T00:35:17.898Z,71.10
2018-09-25T00:35:57.072Z,71.00
2018-09-25T00:36:36.076Z,71.00
2018-09-25T00:37:15.208Z,70.90
2018-09-25T00:37:54.168Z,71.00
2018-09-25T00:38:33.055Z,71.30
2018-09-25T00:39:14.267Z,71.40
2018-09-25T00:39:53.187Z,71.50
2018-09-25T00:40:32.243Z,71.50
2018-09-25T00:41:11.531Z,71.40
2018-09-25T00:41:50.422Z,71.40
2018-09-25T00:42:29.687Z,71.70
2018-09-25T00:43:08.630Z,72.00
2018-09-25T00:43:47.681Z,71.30
2018-09-25T00:44:26.554Z,71.50
2018-09-25T00:45:05.626Z,71.40
2018-09-25T00:45:44.900Z,71.40
2018-09-25T00:46:24.096Z,71.40
2018-09-25T00:47:03.398Z,71.40
2018-09-25T00:47:42.437Z,71.50
2018-09-25T00:48:21.576Z,71.50
2018-09-25T00:49:00.532Z,71.40
2018-09-25T00:49:39.430Z,71.40
2018-09-25T00:50:18.843Z,71.30
2018-09-25T00:50:57.944Z,71.30
2018-09-25T00:51:36.864Z,71.30
2018-09-25T00:52:15.794Z,71.30
2018-09-25T00:52:54.889Z,71.30
2018-09-25T00:53:33.792Z,71.10
2018-09-25T00:54:13.029Z,71.10
2018-09-25T00:54:51.957Z,71.10
2018-09-25T00:55:30.841Z,70.90
2018-09-25T00:56:09.776Z,70.70
2018-09-25T00:56:48.761Z,70.90
2018-09-25T00:57:27.912Z,70.90
2018-09-25T00:58:07.010Z,70.90
2018-09-25T00:58:45.879Z,70.70
2018-09-25T00:59:25.078Z,70.70
2018-09-25T01:00:04.230Z,70.70
2018-09-25T01:00:43.032Z,70.60
2018-09-25T01:01:22.001Z,70.70
2018-09-25T01:02:01.133Z,70.50
2018-09-25T01:02:40.467Z,70.30
2018-09-25T01:03:19.568Z,70.30
2018-09-25T01:03:59.031Z,70.40
2018-09-25T01:04:38.161Z,70.40
2018-09-25T01:05:17.005Z,70.40
2018-09-25T01:05:56.137Z,70.50
2018-09-25T01:06:35.258Z,70.40
2018-09-25T01:07:14.405Z,70.50
2018-09-25T01:07:53.527Z,70.20
2018-09-25T01:08:32.537Z,70.20
2018-09-25T01:09:13.290Z,70.10
2018-09-25T01:09:52.424Z,70.10
2018-09-25T01:10:31.401Z,70.50
2018-09-25T01:11:10.363Z,70.60
2018-09-25T01:11:49.298Z,70.30
2018-09-25T01:12:28.397Z,70.30
2018-09-25T01:13:07.361Z,70.40
2018-09-25T01:13:46.492Z,70.40
2018-09-25T01:14:25.511Z,70.30
2018-09-25T01:15:04.549Z,70.30
2018-09-25T01:15:43.372Z,70.20
2018-09-25T01:16:22.416Z,70.10
2018-09-25T01:17:01.299Z,70.40
2018-09-25T01:17:40.410Z,70.30
2018-09-25T01:18:19.482Z,70.50
2018-09-25T01:18:58.748Z,70.60
2018-09-25T01:19:37.664Z,70.50
2018-09-25T01:20:16.790Z,70.60
2018-09-25T01:20:56.100Z,70.60
2018-09-25T01:21:35.189Z,70.60
2018-09-25T01:22:14.439Z,70.60
2018-09-25T01:22:53.667Z,70.70
2018-09-25T01:23:32.976Z,70.80
2018-09-25T01:24:12.155Z,71.30
2018-09-25T01:24:51.402Z,71.10
2018-09-25T01:25:30.426Z,71.20
2018-09-25T01:26:09.655Z,71.10
2018-09-25T01:26:49.058Z,70.90
2018-09-25T01:27:28.120Z,70.90
2018-09-25T01:28:06.981Z,70.90
2018-09-25T01:28:45.917Z,70.90
2018-09-25T01:29:24.858Z,70.90
2018-09-25T01:30:03.797Z,70.80
2018-09-25T01:30:42.679Z,70.70
2018-09-25T01:31:21.719Z,70.70
2018-09-25T01:32:00.739Z,70.50
2018-09-25T01:32:39.602Z,70.50
2018-09-25T01:33:18.561Z,70.60
2018-09-25T01:33:57.639Z,70.60
2018-09-25T01:34:36.536Z,70.70
2018-09-25T01:35:15.478Z,70.80
2018-09-25T01:35:54.424Z,70.80
2018-09-25T01:36:33.401Z,70.90
2018-09-25T01:37:12.181Z,70.90
2018-09-25T01:37:51.307Z,71.00
2018-09-25T01:38:30.253Z,71.00
2018-09-25T01:39:10.972Z,71.70
2018-09-25T01:39:50.040Z,71.20
2018-09-25T01:40:29.038Z,71.20
2018-09-25T01:41:07.866Z,71.20
2018-09-25T01:41:46.993Z,71.20
2018-09-25T01:42:25.991Z,71.20
2018-09-25T01:43:04.853Z,71.20
2018-09-25T01:43:43.918Z,71.20
2018-09-25T01:44:23.018Z,71.80
2018-09-25T01:45:02.231Z,71.20
2018-09-25T01:45:41.425Z,71.20
2018-09-25T01:46:20.495Z,71.20
2018-09-25T01:46:59.517Z,71.50
2018-09-25T01:47:38.673Z,71.30
2018-09-25T01:48:17.869Z,71.20
2018-09-25T01:48:57.018Z,71.70
2018-09-25T01:49:36.217Z,71.30
2018-09-25T01:50:15.239Z,71.50
2018-09-25T01:50:54.360Z,71.50
2018-09-25T01:51:33.208Z,71.60
2018-09-25T01:52:12.137Z,71.40
2018-09-25T01:52:51.271Z,71.40
2018-09-25T01:53:30.486Z,71.40
2018-09-25T01:54:09.638Z,71.30
2018-09-25T01:54:48.574Z,71.30
2018-09-25T01:55:27.647Z,71.40
2018-09-25T01:56:06.756Z,71.50
2018-09-25T01:56:45.736Z,71.50
2018-09-25T01:57:24.760Z,71.60
2018-09-25T01:58:03.694Z,71.50
2018-09-25T01:58:42.744Z,71.50
2018-09-25T01:59:21.724Z,71.50
2018-09-25T02:00:01.020Z,71.70
2018-09-25T02:00:40.067Z,71.70
2018-09-25T02:01:19.247Z,71.90
2018-09-25T02:01:58.400Z,71.90
2018-09-25T02:02:37.349Z,71.80
2018-09-25T02:03:16.573Z,71.90
2018-09-25T02:03:55.484Z,71.90
2018-09-25T02:04:34.488Z,72.00
2018-09-25T02:05:13.600Z,72.00
2018-09-25T02:05:52.570Z,71.90
2018-09-25T02:06:31.587Z,71.90
2018-09-25T02:07:10.559Z,71.90
2018-09-25T02:07:49.398Z,71.90
2018-09-25T02:08:28.267Z,71.90
2018-09-25T02:09:07.224Z,71.90
2018-09-25T02:09:46.324Z,71.90
2018-09-25T02:10:25.265Z,71.90
2018-09-25T02:11:04.293Z,71.90
2018-09-25T02:11:43.181Z,72.10
2018-09-25T02:12:22.164Z,72.20
2018-09-25T02:13:01.241Z,72.20
2018-09-25T02:13:40.320Z,72.20
2018-09-25T02:14:19.476Z,72.20
2018-09-25T02:14:58.401Z,72.20
2018-09-25T02:15:37.699Z,72.20
2018-09-25T02:16:16.693Z,72.30
2018-09-25T02:16:55.871Z,72.30
2018-09-25T02:17:34.868Z,71.90
2018-09-25T02:18:14.017Z,71.90
2018-09-25T02:18:53.225Z,72.80
2018-09-25T02:19:32.044Z,72.10
2018-09-25T02:20:11.349Z,72.20
2018-09-25T02:20:50.301Z,72.30
2018-09-25T02:21:29.272Z,72.30
2018-09-25T02:22:08.638Z,72.30
2018-09-25T02:22:47.629Z,72.40
2018-09-25T02:23:26.788Z,72.40
2018-09-25T02:24:05.965Z,72.40
2018-09-25T02:24:45.663Z,72.60
2018-09-25T02:25:24.814Z,72.60
2018-09-25T02:26:04.176Z,72.50
2018-09-25T02:26:43.365Z,72.50
2018-09-25T02:27:22.393Z,72.50
2018-09-25T02:28:01.438Z,72.80
2018-09-25T02:28:40.403Z,72.80
2018-09-25T02:29:19.620Z,72.80
2018-09-25T02:29:59.100Z,72.90
2018-09-25T02:30:38.073Z,72.90
2018-09-25T02:31:17.276Z,72.90
2018-09-25T02:31:56.505Z,72.80
2018-09-25T02:32:35.676Z,73.10
2018-09-25T02:33:14.621Z,73.10
2018-09-25T02:33:53.637Z,73.50
2018-09-25T02:34:32.696Z,73.20
2018-09-25T02:35:11.887Z,73.20
2018-09-25T02:35:57.753Z,73.10
2018-09-25T02:36:36.937Z,73.10
2018-09-25T02:37:15.891Z,73.10
2018-09-25T02:37:54.944Z,73.10
2018-09-25T02:38:34.011Z,73.10
2018-09-25T02:39:15.420Z,73.10
2018-09-25T02:39:54.646Z,73.30
2018-09-25T02:40:33.679Z,73.30
2018-09-25T02:41:12.817Z,73.40
2018-09-25T02:41:51.817Z,73.40
2018-09-25T02:42:31.143Z,73.40
2018-09-25T02:43:10.088Z,73.40
2018-09-25T02:43:49.113Z,73.50
2018-09-25T02:44:28.205Z,73.40
2018-09-25T02:45:07.257Z,73.40
2018-09-25T02:45:46.392Z,73.30
2018-09-25T02:46:25.225Z,73.50
2018-09-25T02:47:04.502Z,73.60
2018-09-25T02:47:43.671Z,73.70
2018-09-25T02:48:22.828Z,73.70
2018-09-25T02:49:01.933Z,74.20
2018-09-25T02:49:40.913Z,73.60
2018-09-25T02:50:19.959Z,73.70
2018-09-25T02:50:59.099Z,73.90
2018-09-25T02:51:38.200Z,73.90
2018-09-25T02:52:17.271Z,73.80
2018-09-25T02:52:56.288Z,73.70
2018-09-25T02:53:35.356Z,73.70
2018-09-25T02:54:14.332Z,73.60
2018-09-25T02:54:53.380Z,73.50
2018-09-25T02:55:32.455Z,73.50
2018-09-25T02:56:11.807Z,73.60
2018-09-25T02:56:51.040Z,73.70
2018-09-25T02:57:29.963Z,73.70
2018-09-25T02:58:09.160Z,73.70
2018-09-25T02:58:48.195Z,73.70
2018-09-25T02:59:27.135Z,73.70
2018-09-25T03:00:05.988Z,73.70
2018-09-25T03:00:45.020Z,73.80
2018-09-25T03:01:24.144Z,74.00
2018-09-25T03:02:03.290Z,74.10
2018-09-25T03:02:42.481Z,74.20
2018-09-25T03:03:21.549Z,74.20
2018-09-25T03:04:00.616Z,74.10
2018-09-25T03:04:39.527Z,74.20
2018-09-25T03:05:18.541Z,74.40
2018-09-25T03:05:57.620Z,74.50
2018-09-25T03:06:36.656Z,74.40
2018-09-25T03:07:15.671Z,74.30
2018-09-25T03:07:54.613Z,74.50
2018-09-25T03:08:33.818Z,74.80
2018-09-25T03:09:13.553Z,74.90
2018-09-25T03:09:52.670Z,75.00
2018-09-25T03:10:31.714Z,74.90
2018-09-25T03:11:11.180Z,74.90
2018-09-25T03:11:50.190Z,75.00
2018-09-25T03:12:29.238Z,75.00
2018-09-25T03:13:08.256Z,75.10
2018-09-25T03:13:47.169Z,75.00
2018-09-25T03:14:26.382Z,75.00
2018-09-25T03:15:05.245Z,75.00
2018-09-25T03:15:44.207Z,75.10
2018-09-25T03:16:23.143Z,75.00
2018-09-25T03:17:02.037Z,75.00
2018-09-25T03:17:41.071Z,75.00
2018-09-25T03:18:19.962Z,75.00
2018-09-25T03:18:58.808Z,75.10
2018-09-25T03:19:37.907Z,75.10
2018-09-25T03:20:17.173Z,75.20
2018-09-25T03:20:56.332Z,75.20
2018-09-25T03:21:35.190Z,75.30
2018-09-25T03:22:14.052Z,75.30
2018-09-25T03:22:53.066Z,75.30
2018-09-25T03:23:32.151Z,75.20
2018-09-25T03:24:11.148Z,75.20
2018-09-25T03:24:50.129Z,75.10
2018-09-25T03:25:29.239Z,75.00
2018-09-25T03:26:08.244Z,75.10
2018-09-25T03:26:47.002Z,75.10
2018-09-25T03:27:25.957Z,75.10
2018-09-25T03:28:04.873Z,75.10
2018-09-25T03:28:43.861Z,75.10
2018-09-25T03:29:23.026Z,75.10
2018-09-25T03:30:02.351Z,75.00
2018-09-25T03:30:41.380Z,75.10
2018-09-25T03:31:20.464Z,75.60
2018-09-25T03:31:59.682Z,75.10
2018-09-25T03:32:38.920Z,75.10
2018-09-25T03:33:18.260Z,75.10
2018-09-25T03:34:36.840Z,75.20
2018-09-25T03:35:15.793Z,75.00
2018-09-25T03:35:54.718Z,74.90
2018-09-25T03:36:33.736Z,75.00
2018-09-25T03:37:12.967Z,75.10
2018-09-25T03:37:51.955Z,75.00
2018-09-25T03:38:31.182Z,75.00
2018-09-25T03:39:13.215Z,75.00
2018-09-25T03:39:52.490Z,75.00
2018-09-25T03:40:31.510Z,74.90
2018-09-25T03:41:10.439Z,75.80
2018-09-25T03:41:49.544Z,75.30
2018-09-25T03:42:28.906Z,75.50
2018-09-25T03:43:07.913Z,75.50
2018-09-25T03:43:47.051Z,75.40
2018-09-25T03:44:25.905Z,75.40
2018-09-25T03:45:05.125Z,75.40
2018-09-25T03:45:44.180Z,75.50
2018-09-25T03:46:23.240Z,75.50
2018-09-25T03:47:02.351Z,75.40
2018-09-25T03:47:41.646Z,75.40
2018-09-25T03:48:20.712Z,75.40
2018-09-25T03:48:59.774Z,75.40
2018-09-25T03:49:38.889Z,75.50
2018-09-25T03:50:18.137Z,75.50
2018-09-25T03:50:57.320Z,75.60
2018-09-25T03:51:36.436Z,75.60
2018-09-25T03:52:15.437Z,75.60
2018-09-25T03:52:54.472Z,75.60
2018-09-25T03:53:33.671Z,75.60
2018-09-25T03:54:12.607Z,75.50
2018-09-25T03:54:51.596Z,75.60
2018-09-25T03:55:30.874Z,75.60
2018-09-25T03:56:09.851Z,75.90
2018-09-25T03:56:48.936Z,75.90
2018-09-25T03:57:28.157Z,75.60
2018-09-25T03:58:07.275Z,75.80
2018-09-25T03:58:46.280Z,75.80
2018-09-25T03:59:25.514Z,75.90
2018-09-25T04:00:04.691Z,75.90
2018-09-25T04:00:43.784Z,75.90
2018-09-25T04:01:22.819Z,75.90
2018-09-25T04:02:01.853Z,76.00
2018-09-25T04:02:40.754Z,76.10
2018-09-25T04:03:19.698Z,76.10
2018-09-25T04:03:58.779Z,76.10
2018-09-25T04:04:37.847Z,76.10
2018-09-25T04:05:16.750Z,76.20
2018-09-25T04:05:55.801Z,76.20
2018-09-25T04:06:34.914Z,76.40
2018-09-25T04:07:14.398Z,76.40
2018-09-25T04:07:53.652Z,76.40
2018-09-25T04:08:32.940Z,76.40
2018-09-25T04:09:12.754Z,76.30
2018-09-25T04:09:51.725Z,76.40
2018-09-25T04:10:30.916Z,76.40
2018-09-25T04:11:10.232Z,76.30
2018-09-25T04:11:49.168Z,76.40
2018-09-25T04:12:28.223Z,76.40
2018-09-25T04:13:07.162Z,76.40
2018-09-25T04:13:46.016Z,76.40
2018-09-25T04:14:25.000Z,76.30
2018-09-25T04:15:03.953Z,76.30
2018-09-25T04:15:43.081Z,76.30
2018-09-25T04:16:22.173Z,76.20
2018-09-25T04:17:01.291Z,76.80
2018-09-25T04:17:40.543Z,76.30
2018-09-25T04:18:19.503Z,76.40
2018-09-25T04:18:58.495Z,76.50
2018-09-25T04:19:37.601Z,76.50
2018-09-25T04:20:17.063Z,76.40
2018-09-25T04:20:56.104Z,76.40
2018-09-25T04:21:35.047Z,76.30
2018-09-25T04:22:13.777Z,76.30
2018-09-25T04:22:52.657Z,76.20
2018-09-25T04:23:31.856Z,76.10
2018-09-25T04:24:10.893Z,76.10
2018-09-25T04:24:49.825Z,76.00
2018-09-25T04:25:28.829Z,76.70
2018-09-25T04:26:07.873Z,75.90
2018-09-25T04:26:46.585Z,75.90
2018-09-25T04:27:25.557Z,75.90
2018-09-25T04:28:04.515Z,75.80
2018-09-25T04:28:43.435Z,75.70
2018-09-25T04:29:22.475Z,75.80
2018-09-25T04:30:01.447Z,75.90
2018-09-25T04:30:40.552Z,75.90
2018-09-25T04:31:19.582Z,75.90
2018-09-25T04:31:58.519Z,76.00
2018-09-25T04:32:37.621Z,76.00
2018-09-25T04:33:16.596Z,75.90
2018-09-25T04:33:55.442Z,75.80
2018-09-25T04:34:34.593Z,75.70
2018-09-25T04:35:13.766Z,75.80
2018-09-25T04:35:52.855Z,75.80
2018-09-25T04:36:32.031Z,75.70
2018-09-25T04:37:11.177Z,75.80
2018-09-25T04:37:50.349Z,75.90
2018-09-25T04:38:29.583Z,76.00
2018-09-25T04:39:08.856Z,76.00
2018-09-25T04:39:47.836Z,75.90
2018-09-25T04:40:26.881Z,75.90
2018-09-25T04:41:05.860Z,75.90
2018-09-25T04:41:44.984Z,75.80
2018-09-25T04:42:24.029Z,75.60
2018-09-25T04:43:03.367Z,75.70
2018-09-25T04:43:42.389Z,75.70
2018-09-25T04:44:21.685Z,75.70
2018-09-25T04:45:00.715Z,75.80
2018-09-25T04:45:39.691Z,75.70
2018-09-25T04:46:18.879Z,75.80
2018-09-25T04:46:57.887Z,75.80
2018-09-25T04:47:36.940Z,75.80
2018-09-25T04:48:16.001Z,75.90
2018-09-25T04:48:55.016Z,76.00
2018-09-25T04:49:33.951Z,76.30
2018-09-25T04:50:13.158Z,76.50
2018-09-25T04:50:52.264Z,76.40
2018-09-25T04:51:35.018Z,76.40
2018-09-25T04:52:14.817Z,76.40
2018-09-25T04:52:54.996Z,76.30
2018-09-25T04:53:36.221Z,76.20
2018-09-25T04:54:16.683Z,76.10
2018-09-25T04:54:55.854Z,76.20
2018-09-25T04:55:35.820Z,76.20
2018-09-25T04:56:14.924Z,76.20
2018-09-25T04:56:57.203Z,76.20
2018-09-25T04:57:40.597Z,76.10
2018-09-25T04:58:19.748Z,76.00
2018-09-25T04:58:59.048Z,76.00
2018-09-25T04:59:38.043Z,76.00
2018-09-25T05:00:17.310Z,76.00
2018-09-25T05:00:56.523Z,76.10
2018-09-25T05:01:35.646Z,76.00
2018-09-25T05:02:14.945Z,75.90
2018-09-25T05:02:53.884Z,76.20
2018-09-25T05:03:32.959Z,76.10
2018-09-25T05:04:11.857Z,76.20
2018-09-25T05:04:50.899Z,76.20
2018-09-25T05:05:29.761Z,77.10
2018-09-25T05:06:08.958Z,77.30
2018-09-25T05:06:47.873Z,77.40
2018-09-25T05:07:26.797Z,77.80
2018-09-25T05:08:05.902Z,77.90
2018-09-25T05:08:44.839Z,77.60
2018-09-25T05:09:23.820Z,77.40
2018-09-25T05:10:02.893Z,77.50
2018-09-25T05:10:42.009Z,77.40
2018-09-25T05:11:21.188Z,77.40
2018-09-25T05:12:00.428Z,77.40
2018-09-25T05:12:39.708Z,77.20
2018-09-25T05:13:18.879Z,76.80
2018-09-25T05:13:58.010Z,76.50
2018-09-25T05:19:48.471Z,75.80
2018-09-25T05:20:27.365Z,76.50
2018-09-25T05:21:06.329Z,76.50
2018-09-25T05:21:45.523Z,76.50
2018-09-25T05:22:24.588Z,76.70
2018-09-25T05:23:03.755Z,76.90
2018-09-25T05:23:42.793Z,77.00
2018-09-25T05:24:21.807Z,76.90
2018-09-25T05:25:00.985Z,76.70
2018-09-25T05:25:39.883Z,76.90
2018-09-25T05:26:18.945Z,76.80
2018-09-25T05:26:57.925Z,76.90
2018-09-25T05:27:36.917Z,76.80
2018-09-25T05:28:19.760Z,76.60
2018-09-25T05:28:58.913Z,76.60
2018-09-25T05:29:37.809Z,76.00
2018-09-25T05:30:18.457Z,75.70
2018-09-25T05:30:57.340Z,75.40
2018-09-25T05:31:36.262Z,75.20
2018-09-25T05:32:15.278Z,75.10
2018-09-25T05:32:55.844Z,75.10
2018-09-25T05:33:35.605Z,75.70
2018-09-25T05:34:14.738Z,75.80
2018-09-25T05:34:53.908Z,75.50
2018-09-25T05:35:33.040Z,75.50
2018-09-25T05:36:12.760Z,75.70
2018-09-25T05:36:51.832Z,75.70
2018-09-25T05:37:30.968Z,75.50
2018-09-25T05:38:09.997Z,75.30
2018-09-25T05:38:49.001Z,75.30
2018-09-25T05:39:28.192Z,75.00
2018-09-25T05:40:07.704Z,74.80
2018-09-25T05:40:46.670Z,74.60
2018-09-25T05:41:25.479Z,74.30
2018-09-25T05:42:04.449Z,74.10
2018-09-25T05:42:43.464Z,74.00
2018-09-25T05:43:22.506Z,73.90
2018-09-25T05:44:01.352Z,73.90
2018-09-25T05:44:40.439Z,73.80
2018-09-25T05:45:19.407Z,73.80
2018-09-25T05:46:03.030Z,73.70
2018-09-25T05:46:42.057Z,74.50
2018-09-25T05:47:21.126Z,73.90
2018-09-25T05:48:00.116Z,73.90
2018-09-25T05:48:39.048Z,74.00
2018-09-25T05:49:18.012Z,74.00
2018-09-25T05:49:56.929Z,73.90
2018-09-25T05:50:36.051Z,73.90
2018-09-25T05:51:15.100Z,73.80
2018-09-25T05:51:54.027Z,73.70
2018-09-25T05:52:32.849Z,73.80
2018-09-25T05:53:11.895Z,73.80
2018-09-25T05:53:50.969Z,73.90
2018-09-25T05:54:29.892Z,74.00
2018-09-25T05:55:09.829Z,74.10
2018-09-25T05:55:48.695Z,74.20
2018-09-25T05:56:27.889Z,74.20
2018-09-25T05:57:06.836Z,74.10
2018-09-25T05:57:46.585Z,74.20
2018-09-25T05:58:30.439Z,74.30
2018-09-25T05:59:09.613Z,74.40
2018-09-25T05:59:48.598Z,74.30
2018-09-25T06:00:27.695Z,74.40
2018-09-25T06:01:06.847Z,74.40
2018-09-25T06:01:46.060Z,75.10
2018-09-25T06:02:25.205Z,74.50
2018-09-25T06:03:04.383Z,74.50
2018-09-25T06:03:43.410Z,74.70
2018-09-25T06:04:22.670Z,74.70
2018-09-25T06:05:01.947Z,74.70
2018-09-25T06:05:40.968Z,74.70
2018-09-25T06:06:20.088Z,74.70
2018-09-25T06:06:59.192Z,74.60
2018-09-25T06:07:38.417Z,74.70
2018-09-25T06:08:18.209Z,74.80
2018-09-25T06:08:57.321Z,74.90
2018-09-25T06:09:36.456Z,75.00
2018-09-25T06:10:15.557Z,75.70
2018-09-25T06:10:54.569Z,75.20
2018-09-25T06:11:33.623Z,75.20
2018-09-25T06:12:12.695Z,75.10
2018-09-25T06:12:51.704Z,75.20
2018-09-25T06:13:30.775Z,75.10
2018-09-25T06:14:09.989Z,75.20
2018-09-25T06:14:48.960Z,75.40
2018-09-25T06:15:27.931Z,75.40
2018-09-25T06:16:06.965Z,75.30
2018-09-25T06:16:46.053Z,75.20
2018-09-25T06:17:25.319Z,75.10
2018-09-25T06:18:04.317Z,75.20
2018-09-25T06:18:43.539Z,75.20
2018-09-25T06:19:22.519Z,75.20
2018-09-25T06:20:01.512Z,75.90
2018-09-25T06:20:40.462Z,75.10
2018-09-25T06:21:19.408Z,75.00
2018-09-25T06:21:58.675Z,74.90
2018-09-25T06:22:37.780Z,74.90
2018-09-25T06:23:16.812Z,74.90
2018-09-25T06:23:55.955Z,75.00
2018-09-25T06:24:34.934Z,75.10
2018-09-25T06:25:13.991Z,75.20
2018-09-25T06:25:53.045Z,75.10
2018-09-25T06:26:32.060Z,75.10
2018-09-25T06:27:11.017Z,75.00
2018-09-25T06:27:50.196Z,75.00
2018-09-25T06:28:29.192Z,75.00
2018-09-25T06:29:08.259Z,74.90
2018-09-25T06:29:47.139Z,74.90
2018-09-25T06:30:26.214Z,74.90
2018-09-25T06:31:05.532Z,74.90
2018-09-25T06:31:44.672Z,74.90
2018-09-25T06:32:23.725Z,75.00
2018-09-25T06:33:02.753Z,75.00
2018-09-25T06:33:41.907Z,75.00
2018-09-25T06:34:20.855Z,75.00
2018-09-25T06:35:00.213Z,74.90
2018-09-25T06:35:39.408Z,74.90
2018-09-25T06:36:19.137Z,74.80
2018-09-25T06:36:58.244Z,74.80
2018-09-25T06:37:37.370Z,75.00
2018-09-25T06:38:16.364Z,75.10
2018-09-25T06:38:55.579Z,75.10
2018-09-25T06:39:34.588Z,75.00
2018-09-25T06:40:14.042Z,75.00
2018-09-25T06:40:53.296Z,75.00
2018-09-25T06:41:32.305Z,74.90
2018-09-25T06:42:11.576Z,74.70
2018-09-25T06:42:50.610Z,74.60
2018-09-25T06:43:29.801Z,74.60
2018-09-25T06:44:08.815Z,74.50
2018-09-25T06:44:47.716Z,74.80
2018-09-25T06:45:26.885Z,74.70
2018-09-25T06:46:05.859Z,75.20
2018-09-25T06:46:44.796Z,74.70
2018-09-25T06:47:23.692Z,74.60
2018-09-25T06:48:02.601Z,74.50
2018-09-25T06:48:41.516Z,74.70
2018-09-25T06:49:20.791Z,74.60
2018-09-25T06:50:00.009Z,74.50
2018-09-25T06:50:39.028Z,74.40
2018-09-25T06:51:18.207Z,73.80
2018-09-25T06:51:57.294Z,73.90
2018-09-25T06:52:36.426Z,73.90
2018-09-25T06:53:15.368Z,73.70
2018-09-25T06:53:54.327Z,73.60
2018-09-25T06:54:33.416Z,73.70
2018-09-25T06:55:12.482Z,73.80
2018-09-25T06:55:51.503Z,73.60
2018-09-25T06:56:30.416Z,73.10
2018-09-25T06:57:09.610Z,73.00
2018-09-25T06:57:48.647Z,73.20
2018-09-25T06:58:27.616Z,73.00
2018-09-25T06:59:06.701Z,73.50
2018-09-25T06:59:46.026Z,73.50
2018-09-25T07:00:25.271Z,73.30
2018-09-25T07:01:04.430Z,72.90
2018-09-25T07:01:43.308Z,72.70
2018-09-25T07:02:22.360Z,73.10
2018-09-25T07:03:01.477Z,72.40
2018-09-25T07:03:40.577Z,72.40
2018-09-25T07:04:19.837Z,72.20
2018-09-25T07:04:59.399Z,72.60
2018-09-25T07:05:38.653Z,72.60
2018-09-25T07:06:17.702Z,72.40
2018-09-25T07:06:56.899Z,72.40
2018-09-25T07:07:35.927Z,71.20
2018-09-25T07:08:15.297Z,71.10
2018-09-25T07:08:54.253Z,70.90
2018-09-25T07:09:33.457Z,70.90
2018-09-25T07:10:13.457Z,70.90
2018-09-25T07:10:52.442Z,71.10
2018-09-25T07:11:31.532Z,70.80
2018-09-25T07:12:10.613Z,70.70
2018-09-25T07:12:49.768Z,70.80
2018-09-25T07:13:28.600Z,70.70
2018-09-25T07:14:07.932Z,70.50
2018-09-25T07:14:47.319Z,70.50
2018-09-25T07:15:26.360Z,70.30
2018-09-25T07:16:05.385Z,69.80
2018-09-25T07:16:44.387Z,69.90
2018-09-25T07:17:23.417Z,69.80
2018-09-25T07:18:02.546Z,69.60
2018-09-25T07:18:41.535Z,69.20
2018-09-25T07:19:20.462Z,69.40
2018-09-25T07:19:59.511Z,69.30
2018-09-25T07:20:38.410Z,69.30
2018-09-25T07:21:17.636Z,69.10
2018-09-25T07:21:56.894Z,69.40
2018-09-25T07:22:35.856Z,69.40
2018-09-25T07:23:15.061Z,69.30
2018-09-25T07:23:54.131Z,69.00
2018-09-25T07:24:33.205Z,68.70
2018-09-25T07:25:12.742Z,68.40
2018-09-25T07:25:51.990Z,68.50
2018-09-25T07:26:31.349Z,68.30
2018-09-25T07:27:10.879Z,68.10
2018-09-25T07:27:50.506Z,68.10
2018-09-25T07:28:29.671Z,68.20
2018-09-25T07:29:09.037Z,68.40
2018-09-25T07:29:48.498Z,67.90
2018-09-25T07:30:27.767Z,67.80
2018-09-25T07:31:06.805Z,67.50
2018-09-25T07:31:46.227Z,67.40
2018-09-25T07:32:25.314Z,67.70
2018-09-25T07:33:04.580Z,68.00
2018-09-25T07:33:43.746Z,67.30
2018-09-25T07:34:22.985Z,67.70
2018-09-25T07:35:02.290Z,67.90
2018-09-25T07:35:41.277Z,67.70
2018-09-25T07:36:20.657Z,67.20
2018-09-25T07:36:59.867Z,67.00
2018-09-25T07:37:39.037Z,66.90
2018-09-25T07:38:18.130Z,66.90
2018-09-25T07:38:57.240Z,67.00
2018-09-25T07:39:36.289Z,66.80
2018-09-25T07:40:15.419Z,67.00
2018-09-25T07:40:54.671Z,66.50
2018-09-25T07:41:33.841Z,66.70
2018-09-25T07:42:12.991Z,66.10
2018-09-25T07:42:52.239Z,66.00
2018-09-25T07:43:31.095Z,66.10
2018-09-25T07:44:10.613Z,66.20
2018-09-25T07:44:49.697Z,65.60
2018-09-25T07:45:28.672Z,65.50
2018-09-25T07:46:07.698Z,65.20
2018-09-25T07:46:46.772Z,65.10
2018-09-25T07:47:26.049Z,65.20
2018-09-25T07:48:05.242Z,65.30
2018-09-25T07:48:44.473Z,65.60
2018-09-25T07:49:23.807Z,66.20
2018-09-25T07:50:02.823Z,65.50
2018-09-25T07:50:42.153Z,65.10
2018-09-25T07:51:21.066Z,65.00
2018-09-25T07:52:00.093Z,65.20
2018-09-25T07:52:39.281Z,65.30
2018-09-25T07:53:18.441Z,64.90
2018-09-25T07:53:57.419Z,64.80
2018-09-25T07:54:36.324Z,64.40
2018-09-25T07:55:15.267Z,64.60
2018-09-25T07:55:54.268Z,64.40
2018-09-25T07:56:33.280Z,64.80
2018-09-25T07:57:13.182Z,64.50
2018-09-25T07:57:52.022Z,64.30
2018-09-25T07:58:31.138Z,64.00
2018-09-25T07:59:10.364Z,63.40
2018-09-25T07:59:49.379Z,62.70
2018-09-25T08:00:28.466Z,63.50
2018-09-25T08:01:07.735Z,62.30
2018-09-25T08:01:46.816Z,62.30
2018-09-25T08:02:26.128Z,62.80
2018-09-25T08:03:05.153Z,62.50
2018-09-25T08:03:44.360Z,62.80
2018-09-25T08:04:23.523Z,62.20
2018-09-25T08:05:02.840Z,61.90
2018-09-25T08:05:42.009Z,62.30
2018-09-25T08:06:21.281Z,62.40
2018-09-25T08:07:00.448Z,61.90
2018-09-25T08:07:39.321Z,61.10
2018-09-25T08:08:18.231Z,61.00
2018-09-25T08:08:57.270Z,59.10
2018-09-25T08:09:36.647Z,59.50
2018-09-25T08:10:15.837Z,59.70
2018-09-25T08:10:54.812Z,60.20
2018-09-25T08:11:33.805Z,60.70
2018-09-25T08:12:13.291Z,60.90
2018-09-25T08:12:52.449Z,60.70
2018-09-25T08:13:31.556Z,60.30
2018-09-25T08:14:10.636Z,60.50
2018-09-25T08:14:49.518Z,60.60
2018-09-25T08:15:28.652Z,60.70
2018-09-25T08:16:07.633Z,60.50
2018-09-25T08:16:46.695Z,60.20
2018-09-25T08:17:25.770Z,59.90
2018-09-25T08:18:05.061Z,59.90
2018-09-25T08:18:44.343Z,60.50
2018-09-25T08:19:23.497Z,60.10
2018-09-25T08:20:02.512Z,60.20
2018-09-25T08:20:41.631Z,59.20
2018-09-25T08:21:20.817Z,58.40
2018-09-25T08:22:00.141Z,58.80
2018-09-25T08:22:39.264Z,58.30
2018-09-25T08:23:18.286Z,56.50
2018-09-25T08:23:57.173Z,56.50
2018-09-25T08:24:36.121Z,55.50
2018-09-25T08:25:15.461Z,55.70
2018-09-25T08:25:54.500Z,55.30
2018-09-25T08:26:33.640Z,55.60
2018-09-25T08:27:13.296Z,56.40
2018-09-25T08:27:53.966Z,55.20
2018-09-25T08:28:33.015Z,54.80
2018-09-25T08:29:11.926Z,55.00
2018-09-25T08:29:51.202Z,55.00